sensor_id;sensor_type;location;lat;lon;timestamp;temperature;humidity
14122;DHT22;7139;48.114;11.442;2023-04-20T00:02:07;6.00;99.90
14122;DHT22;7139;48.114;11.442;2023-04-20T00:04:34;6.10;99.90
14122;DHT22;7139;48.114;11.442;2023-04-20T00:07:01;6.00;99.90
14122;DHT22;7139;48.114;11.442;2023-04-20T00:09:29;6.00;99.90
14122;DHT22;7139;48.114;11.442;2023-04-20T00:11:56;6.10;99.90
14122;DHT22;7139;48.114;11.442;2023-04-20T00:14:23;6.10;99.90
14122;DHT22;7139;48.114;11.442;2023-04-20T00:16:50;6.00;99.90
14122;DHT22;7139;48.114;11.442;2023-04-20T00:19:16;6.00;99.90
14122;DHT22;7139;48.114;11.442;2023-04-20T00:21:43;6.00;99.90
14122;DHT22;7139;48.114;11.442;2023-04-20T00:24:10;6.00;99.90
14122;DHT22;7139;48.114;11.442;2023-04-20T00:26:38;6.00;99.90
14122;DHT22;7139;48.114;11.442;2023-04-20T00:29:05;6.00;99.90
14122;DHT22;7139;48.114;11.442;2023-04-20T00:31:32;5.90;99.90
14122;DHT22;7139;48.114;11.442;2023-04-20T00:33:58;6.00;99.90
14122;DHT22;7139;48.114;11.442;2023-04-20T00:36:26;6.00;99.90
14122;DHT22;7139;48.114;11.442;2023-04-20T00:38:52;6.00;99.90
14122;DHT22;7139;48.114;11.442;2023-04-20T00:41:20;6.00;99.90
14122;DHT22;7139;48.114;11.442;2023-04-20T00:43:51;5.90;99.90
14122;DHT22;7139;48.114;11.442;2023-04-20T00:46:19;5.90;99.90
14122;DHT22;7139;48.114;11.442;2023-04-20T00:48:45;5.90;99.90
14122;DHT22;7139;48.114;11.442;2023-04-20T00:51:13;5.90;99.90
14122;DHT22;7139;48.114;11.442;2023-04-20T00:53:40;5.90;99.90
14122;DHT22;7139;48.114;11.442;2023-04-20T00:56:07;5.90;99.90
14122;DHT22;7139;48.114;11.442;2023-04-20T00:58:33;5.90;99.90
14122;DHT22;7139;48.114;11.442;2023-04-20T01:01:02;5.90;99.90
14122;DHT22;7139;48.114;11.442;2023-04-20T01:03:28;5.90;99.90
14122;DHT22;7139;48.114;11.442;2023-04-20T01:05:55;6.00;99.90
14122;DHT22;7139;48.114;11.442;2023-04-20T01:08:25;6.00;99.90
14122;DHT22;7139;48.114;11.442;2023-04-20T01:10:51;6.00;99.90
14122;DHT22;7139;48.114;11.442;2023-04-20T01:13:18;6.00;99.90
14122;DHT22;7139;48.114;11.442;2023-04-20T01:15:45;5.90;99.90
14122;DHT22;7139;48.114;11.442;2023-04-20T01:18:13;5.90;99.90
14122;DHT22;7139;48.114;11.442;2023-04-20T01:20:40;6.00;99.90
14122;DHT22;7139;48.114;11.442;2023-04-20T01:23:08;6.00;99.90
14122;DHT22;7139;48.114;11.442;2023-04-20T01:25:34;6.00;99.90
14122;DHT22;7139;48.114;11.442;2023-04-20T01:28:01;6.00;99.90
14122;DHT22;7139;48.114;11.442;2023-04-20T01:30:29;6.00;99.90
14122;DHT22;7139;48.114;11.442;2023-04-20T01:32:56;6.00;99.90
14122;DHT22;7139;48.114;11.442;2023-04-20T01:35:23;6.00;99.90
14122;DHT22;7139;48.114;11.442;2023-04-20T01:37:49;6.00;99.90
14122;DHT22;7139;48.114;11.442;2023-04-20T01:40:18;6.00;99.90
14122;DHT22;7139;48.114;11.442;2023-04-20T01:42:44;6.00;99.90
14122;DHT22;7139;48.114;11.442;2023-04-20T01:45:11;6.00;99.90
14122;DHT22;7139;48.114;11.442;2023-04-20T01:47:38;6.00;99.90
14122;DHT22;7139;48.114;11.442;2023-04-20T01:50:05;6.00;99.90
14122;DHT22;7139;48.114;11.442;2023-04-20T01:52:32;6.00;99.90
14122;DHT22;7139;48.114;11.442;2023-04-20T01:54:59;6.00;99.90
14122;DHT22;7139;48.114;11.442;2023-04-20T01:57:27;6.00;99.90
14122;DHT22;7139;48.114;11.442;2023-04-20T01:59:53;6.00;99.90
14122;DHT22;7139;48.114;11.442;2023-04-20T02:02:20;6.00;99.90
14122;DHT22;7139;48.114;11.442;2023-04-20T02:04:47;5.90;99.90
14122;DHT22;7139;48.114;11.442;2023-04-20T02:07:13;6.00;99.90
14122;DHT22;7139;48.114;11.442;2023-04-20T02:09:41;5.90;99.90
14122;DHT22;7139;48.114;11.442;2023-04-20T02:12:07;6.00;99.90
14122;DHT22;7139;48.114;11.442;2023-04-20T02:14:35;5.90;99.90
14122;DHT22;7139;48.114;11.442;2023-04-20T02:17:02;5.80;99.90
14122;DHT22;7139;48.114;11.442;2023-04-20T02:19:29;5.70;99.90
14122;DHT22;7139;48.114;11.442;2023-04-20T02:21:55;5.70;99.90
14122;DHT22;7139;48.114;11.442;2023-04-20T02:24:22;5.60;99.90
14122;DHT22;7139;48.114;11.442;2023-04-20T02:26:49;5.60;99.90
14122;DHT22;7139;48.114;11.442;2023-04-20T02:29:15;5.60;99.90
14122;DHT22;7139;48.114;11.442;2023-04-20T02:31:44;5.60;99.90
14122;DHT22;7139;48.114;11.442;2023-04-20T02:34:11;5.60;99.90
14122;DHT22;7139;48.114;11.442;2023-04-20T02:36:38;5.60;99.90
14122;DHT22;7139;48.114;11.442;2023-04-20T02:39:04;5.60;99.90
14122;DHT22;7139;48.114;11.442;2023-04-20T02:41:31;5.60;99.90
14122;DHT22;7139;48.114;11.442;2023-04-20T02:43:58;5.60;99.90
14122;DHT22;7139;48.114;11.442;2023-04-20T02:46:24;5.60;99.90
14122;DHT22;7139;48.114;11.442;2023-04-20T02:48:53;5.60;99.90
14122;DHT22;7139;48.114;11.442;2023-04-20T02:51:21;5.70;99.90
14122;DHT22;7139;48.114;11.442;2023-04-20T02:53:47;5.60;99.90
14122;DHT22;7139;48.114;11.442;2023-04-20T02:56:14;5.60;99.90
14122;DHT22;7139;48.114;11.442;2023-04-20T02:58:41;5.60;99.90
14122;DHT22;7139;48.114;11.442;2023-04-20T03:01:07;5.60;99.90
14122;DHT22;7139;48.114;11.442;2023-04-20T03:03:34;5.60;99.90
14122;DHT22;7139;48.114;11.442;2023-04-20T03:06:03;5.50;99.90
14122;DHT22;7139;48.114;11.442;2023-04-20T03:08:29;5.50;99.90
14122;DHT22;7139;48.114;11.442;2023-04-20T03:10:56;5.50;99.90
14122;DHT22;7139;48.114;11.442;2023-04-20T03:13:23;5.60;99.90
14122;DHT22;7139;48.114;11.442;2023-04-20T03:15:49;5.60;99.90
14122;DHT22;7139;48.114;11.442;2023-04-20T03:18:16;5.50;99.90
14122;DHT22;7139;48.114;11.442;2023-04-20T03:20:43;5.50;99.90
14122;DHT22;7139;48.114;11.442;2023-04-20T03:23:11;5.50;99.90
14122;DHT22;7139;48.114;11.442;2023-04-20T03:25:38;5.50;99.90
14122;DHT22;7139;48.114;11.442;2023-04-20T03:28:05;5.50;99.90
14122;DHT22;7139;48.114;11.442;2023-04-20T03:30:31;5.50;99.90
14122;DHT22;7139;48.114;11.442;2023-04-20T03:32:58;5.60;99.90
14122;DHT22;7139;48.114;11.442;2023-04-20T03:35:25;5.60;99.90
14122;DHT22;7139;48.114;11.442;2023-04-20T03:37:51;5.60;99.90
14122;DHT22;7139;48.114;11.442;2023-04-20T03:40:20;5.60;99.90
14122;DHT22;7139;48.114;11.442;2023-04-20T03:42:46;5.60;99.90
14122;DHT22;7139;48.114;11.442;2023-04-20T03:45:13;5.60;99.90
14122;DHT22;7139;48.114;11.442;2023-04-20T03:47:40;5.60;99.90
14122;DHT22;7139;48.114;11.442;2023-04-20T03:50:07;5.60;99.90
14122;DHT22;7139;48.114;11.442;2023-04-20T03:52:34;5.60;99.90
14122;DHT22;7139;48.114;11.442;2023-04-20T03:55:01;5.60;99.90
14122;DHT22;7139;48.114;11.442;2023-04-20T03:57:29;5.60;99.90
14122;DHT22;7139;48.114;11.442;2023-04-20T03:59:56;5.60;99.90
14122;DHT22;7139;48.114;11.442;2023-04-20T04:02:22;5.50;99.90
14122;DHT22;7139;48.114;11.442;2023-04-20T04:04:49;5.50;99.90
14122;DHT22;7139;48.114;11.442;2023-04-20T04:07:16;5.60;99.90
14122;DHT22;7139;48.114;11.442;2023-04-20T04:09:43;5.60;99.90
14122;DHT22;7139;48.114;11.442;2023-04-20T04:12:09;5.60;99.90
14122;DHT22;7139;48.114;11.442;2023-04-20T04:14:37;5.60;99.90
14122;DHT22;7139;48.114;11.442;2023-04-20T04:17:04;5.60;99.90
14122;DHT22;7139;48.114;11.442;2023-04-20T04:19:32;5.60;99.90
14122;DHT22;7139;48.114;11.442;2023-04-20T04:21:59;5.60;99.90
14122;DHT22;7139;48.114;11.442;2023-04-20T04:24:25;5.60;99.90
14122;DHT22;7139;48.114;11.442;2023-04-20T04:26:52;5.60;99.90
14122;DHT22;7139;48.114;11.442;2023-04-20T04:29:21;5.60;99.90
14122;DHT22;7139;48.114;11.442;2023-04-20T04:31:49;5.60;99.90
14122;DHT22;7139;48.114;11.442;2023-04-20T04:34:15;5.60;99.90
14122;DHT22;7139;48.114;11.442;2023-04-20T04:36:43;5.60;99.90
14122;DHT22;7139;48.114;11.442;2023-04-20T04:39:10;5.60;99.90
14122;DHT22;7139;48.114;11.442;2023-04-20T04:41:37;5.60;99.90
14122;DHT22;7139;48.114;11.442;2023-04-20T04:44:04;5.60;99.90
14122;DHT22;7139;48.114;11.442;2023-04-20T04:46:31;5.60;99.90
14122;DHT22;7139;48.114;11.442;2023-04-20T04:48:59;5.60;99.90
14122;DHT22;7139;48.114;11.442;2023-04-20T04:51:27;5.60;99.90
14122;DHT22;7139;48.114;11.442;2023-04-20T04:53:53;5.60;99.90
14122;DHT22;7139;48.114;11.442;2023-04-20T04:56:21;5.60;99.90
14122;DHT22;7139;48.114;11.442;2023-04-20T04:58:48;5.60;99.90
14122;DHT22;7139;48.114;11.442;2023-04-20T05:01:14;5.60;99.90
14122;DHT22;7139;48.114;11.442;2023-04-20T05:03:41;5.60;99.90
14122;DHT22;7139;48.114;11.442;2023-04-20T05:06:09;5.50;99.90
14122;DHT22;7139;48.114;11.442;2023-04-20T05:08:36;5.50;99.90
14122;DHT22;7139;48.114;11.442;2023-04-20T05:11:02;5.50;99.90
14122;DHT22;7139;48.114;11.442;2023-04-20T05:13:29;5.60;99.90
14122;DHT22;7139;48.114;11.442;2023-04-20T05:15:56;5.60;99.90
14122;DHT22;7139;48.114;11.442;2023-04-20T05:18:23;5.50;99.90
14122;DHT22;7139;48.114;11.442;2023-04-20T05:20:49;5.50;99.90
14122;DHT22;7139;48.114;11.442;2023-04-20T05:23:18;5.60;99.90
14122;DHT22;7139;48.114;11.442;2023-04-20T05:25:45;5.60;99.90
14122;DHT22;7139;48.114;11.442;2023-04-20T05:28:11;5.60;99.90
14122;DHT22;7139;48.114;11.442;2023-04-20T05:30:38;5.60;99.90
14122;DHT22;7139;48.114;11.442;2023-04-20T05:33:05;5.60;99.90
14122;DHT22;7139;48.114;11.442;2023-04-20T05:35:32;5.60;99.90
14122;DHT22;7139;48.114;11.442;2023-04-20T05:37:58;5.60;99.90
14122;DHT22;7139;48.114;11.442;2023-04-20T05:40:29;5.60;99.90
14122;DHT22;7139;48.114;11.442;2023-04-20T05:42:56;5.60;99.90
14122;DHT22;7139;48.114;11.442;2023-04-20T05:45:23;5.60;99.90
14122;DHT22;7139;48.114;11.442;2023-04-20T05:47:52;5.70;99.90
14122;DHT22;7139;48.114;11.442;2023-04-20T05:50:19;5.60;99.90
14122;DHT22;7139;48.114;11.442;2023-04-20T05:52:49;5.60;99.90
14122;DHT22;7139;48.114;11.442;2023-04-20T05:55:16;5.60;99.90
14122;DHT22;7139;48.114;11.442;2023-04-20T05:57:44;5.60;99.90
14122;DHT22;7139;48.114;11.442;2023-04-20T06:00:13;5.60;99.90
14122;DHT22;7139;48.114;11.442;2023-04-20T06:02:40;5.60;99.90
14122;DHT22;7139;48.114;11.442;2023-04-20T06:05:07;5.60;99.90
14122;DHT22;7139;48.114;11.442;2023-04-20T06:07:35;5.60;99.90
14122;DHT22;7139;48.114;11.442;2023-04-20T06:10:02;5.60;99.90
14122;DHT22;7139;48.114;11.442;2023-04-20T06:12:29;5.60;99.90
14122;DHT22;7139;48.114;11.442;2023-04-20T06:14:57;5.60;99.90
14122;DHT22;7139;48.114;11.442;2023-04-20T06:17:24;5.60;99.90
14122;DHT22;7139;48.114;11.442;2023-04-20T06:19:51;5.60;99.90
14122;DHT22;7139;48.114;11.442;2023-04-20T06:22:18;5.60;99.90
14122;DHT22;7139;48.114;11.442;2023-04-20T06:24:45;5.60;99.90
14122;DHT22;7139;48.114;11.442;2023-04-20T06:27:12;5.60;99.90
14122;DHT22;7139;48.114;11.442;2023-04-20T06:29:39;5.60;99.90
14122;DHT22;7139;48.114;11.442;2023-04-20T06:32:07;5.50;99.90
14122;DHT22;7139;48.114;11.442;2023-04-20T06:34:35;5.50;99.90
14122;DHT22;7139;48.114;11.442;2023-04-20T06:37:04;5.60;99.90
14122;DHT22;7139;48.114;11.442;2023-04-20T06:39:31;5.60;99.90
14122;DHT22;7139;48.114;11.442;2023-04-20T06:41:57;5.60;99.90
14122;DHT22;7139;48.114;11.442;2023-04-20T06:44:24;5.60;99.90
14122;DHT22;7139;48.114;11.442;2023-04-20T06:46:51;5.60;99.90
14122;DHT22;7139;48.114;11.442;2023-04-20T06:49:19;5.60;99.90
14122;DHT22;7139;48.114;11.442;2023-04-20T06:51:46;5.60;99.90
14122;DHT22;7139;48.114;11.442;2023-04-20T06:54:13;5.60;99.90
14122;DHT22;7139;48.114;11.442;2023-04-20T06:56:39;5.50;99.90
14122;DHT22;7139;48.114;11.442;2023-04-20T06:59:06;5.60;99.90
14122;DHT22;7139;48.114;11.442;2023-04-20T07:01:33;5.60;99.90
14122;DHT22;7139;48.114;11.442;2023-04-20T07:04:00;5.60;99.90
14122;DHT22;7139;48.114;11.442;2023-04-20T07:06:28;5.60;99.90
14122;DHT22;7139;48.114;11.442;2023-04-20T07:08:55;5.50;99.90
14122;DHT22;7139;48.114;11.442;2023-04-20T07:11:22;5.50;99.90
14122;DHT22;7139;48.114;11.442;2023-04-20T07:13:49;5.50;99.90
14122;DHT22;7139;48.114;11.442;2023-04-20T07:16:16;5.60;99.90
14122;DHT22;7139;48.114;11.442;2023-04-20T07:18:43;5.60;99.90
14122;DHT22;7139;48.114;11.442;2023-04-20T07:21:10;5.60;99.90
14122;DHT22;7139;48.114;11.442;2023-04-20T07:23:38;5.50;99.90
14122;DHT22;7139;48.114;11.442;2023-04-20T07:26:04;5.60;99.90
14122;DHT22;7139;48.114;11.442;2023-04-20T07:28:31;5.60;99.90
14122;DHT22;7139;48.114;11.442;2023-04-20T07:30:58;5.70;99.90
14122;DHT22;7139;48.114;11.442;2023-04-20T07:33:25;5.70;99.90
14122;DHT22;7139;48.114;11.442;2023-04-20T07:35:52;5.70;99.90
14122;DHT22;7139;48.114;11.442;2023-04-20T07:38:18;5.60;99.90
14122;DHT22;7139;48.114;11.442;2023-04-20T07:40:47;5.60;99.90
14122;DHT22;7139;48.114;11.442;2023-04-20T07:43:14;5.60;99.90
14122;DHT22;7139;48.114;11.442;2023-04-20T07:45:40;5.50;99.90
14122;DHT22;7139;48.114;11.442;2023-04-20T07:48:07;5.50;99.90
14122;DHT22;7139;48.114;11.442;2023-04-20T07:50:36;5.50;99.90
14122;DHT22;7139;48.114;11.442;2023-04-20T07:53:03;5.50;99.90
14122;DHT22;7139;48.114;11.442;2023-04-20T07:55:30;5.60;99.90
14122;DHT22;7139;48.114;11.442;2023-04-20T07:57:58;5.60;99.90
14122;DHT22;7139;48.114;11.442;2023-04-20T08:00:26;5.70;99.90
14122;DHT22;7139;48.114;11.442;2023-04-20T08:02:52;5.70;99.90
14122;DHT22;7139;48.114;11.442;2023-04-20T08:05:19;5.70;99.90
14122;DHT22;7139;48.114;11.442;2023-04-20T08:07:46;5.80;99.90
14122;DHT22;7139;48.114;11.442;2023-04-20T08:10:13;5.80;99.90
14122;DHT22;7139;48.114;11.442;2023-04-20T08:12:40;5.80;99.90
14122;DHT22;7139;48.114;11.442;2023-04-20T08:15:09;5.90;99.90
14122;DHT22;7139;48.114;11.442;2023-04-20T08:17:36;5.90;99.90
14122;DHT22;7139;48.114;11.442;2023-04-20T08:20:03;5.90;99.90
14122;DHT22;7139;48.114;11.442;2023-04-20T08:22:31;5.90;99.90
14122;DHT22;7139;48.114;11.442;2023-04-20T08:24:58;5.90;99.90
14122;DHT22;7139;48.114;11.442;2023-04-20T08:27:25;5.90;99.90
14122;DHT22;7139;48.114;11.442;2023-04-20T08:29:54;5.80;99.90
14122;DHT22;7139;48.114;11.442;2023-04-20T08:32:22;5.80;99.90
14122;DHT22;7139;48.114;11.442;2023-04-20T08:34:51;5.90;99.90
14122;DHT22;7139;48.114;11.442;2023-04-20T08:37:18;5.80;99.90
14122;DHT22;7139;48.114;11.442;2023-04-20T08:39:45;5.80;99.90
14122;DHT22;7139;48.114;11.442;2023-04-20T08:42:12;5.70;99.90
14122;DHT22;7139;48.114;11.442;2023-04-20T08:44:40;5.70;99.90
14122;DHT22;7139;48.114;11.442;2023-04-20T08:47:08;5.80;99.90
14122;DHT22;7139;48.114;11.442;2023-04-20T08:49:37;5.80;99.90
14122;DHT22;7139;48.114;11.442;2023-04-20T08:52:05;5.90;99.90
14122;DHT22;7139;48.114;11.442;2023-04-20T08:54:31;5.90;99.90
14122;DHT22;7139;48.114;11.442;2023-04-20T08:56:58;5.90;99.90
14122;DHT22;7139;48.114;11.442;2023-04-20T08:59:26;5.90;99.90
14122;DHT22;7139;48.114;11.442;2023-04-20T09:01:53;6.00;99.90
14122;DHT22;7139;48.114;11.442;2023-04-20T09:04:20;6.00;99.90
14122;DHT22;7139;48.114;11.442;2023-04-20T09:06:50;6.00;99.90
14122;DHT22;7139;48.114;11.442;2023-04-20T09:09:17;6.00;99.90
14122;DHT22;7139;48.114;11.442;2023-04-20T09:11:44;5.90;99.90
14122;DHT22;7139;48.114;11.442;2023-04-20T09:14:13;6.00;99.90
14122;DHT22;7139;48.114;11.442;2023-04-20T09:16:48;6.00;99.90
14122;DHT22;7139;48.114;11.442;2023-04-20T09:19:20;6.10;99.90
14122;DHT22;7139;48.114;11.442;2023-04-20T09:21:50;6.20;99.90
14122;DHT22;7139;48.114;11.442;2023-04-20T09:24:19;6.20;99.90
14122;DHT22;7139;48.114;11.442;2023-04-20T09:26:46;6.30;99.90
14122;DHT22;7139;48.114;11.442;2023-04-20T09:29:16;6.30;99.90
14122;DHT22;7139;48.114;11.442;2023-04-20T09:31:43;6.30;99.90
14122;DHT22;7139;48.114;11.442;2023-04-20T09:34:11;6.30;99.90
14122;DHT22;7139;48.114;11.442;2023-04-20T09:36:39;6.40;99.90
14122;DHT22;7139;48.114;11.442;2023-04-20T09:39:09;6.40;99.90
14122;DHT22;7139;48.114;11.442;2023-04-20T09:41:37;6.50;99.90
14122;DHT22;7139;48.114;11.442;2023-04-20T09:44:05;6.60;99.90
14122;DHT22;7139;48.114;11.442;2023-04-20T09:46:34;6.70;99.90
14122;DHT22;7139;48.114;11.442;2023-04-20T09:49:03;6.80;99.90
14122;DHT22;7139;48.114;11.442;2023-04-20T09:51:31;6.80;99.90
14122;DHT22;7139;48.114;11.442;2023-04-20T09:54:00;6.80;99.90
14122;DHT22;7139;48.114;11.442;2023-04-20T09:56:30;6.80;99.90
14122;DHT22;7139;48.114;11.442;2023-04-20T09:58:58;6.80;99.90
14122;DHT22;7139;48.114;11.442;2023-04-20T10:01:28;6.80;99.90
14122;DHT22;7139;48.114;11.442;2023-04-20T10:03:56;6.90;99.90
14122;DHT22;7139;48.114;11.442;2023-04-20T10:06:24;6.90;99.90
14122;DHT22;7139;48.114;11.442;2023-04-20T10:08:52;6.90;99.90
14122;DHT22;7139;48.114;11.442;2023-04-20T10:11:31;6.90;99.90
14122;DHT22;7139;48.114;11.442;2023-04-20T10:14:00;6.90;99.90
14122;DHT22;7139;48.114;11.442;2023-04-20T10:16:28;7.00;99.90
14122;DHT22;7139;48.114;11.442;2023-04-20T10:18:57;7.00;99.90
14122;DHT22;7139;48.114;11.442;2023-04-20T10:21:24;7.10;99.90
14122;DHT22;7139;48.114;11.442;2023-04-20T10:23:51;7.10;99.90
14122;DHT22;7139;48.114;11.442;2023-04-20T10:26:18;7.10;99.90
14122;DHT22;7139;48.114;11.442;2023-04-20T10:28:47;7.10;99.90
14122;DHT22;7139;48.114;11.442;2023-04-20T10:31:14;6.90;99.90
14122;DHT22;7139;48.114;11.442;2023-04-20T10:33:51;6.90;99.90
14122;DHT22;7139;48.114;11.442;2023-04-20T10:36:26;6.90;99.90
14122;DHT22;7139;48.114;11.442;2023-04-20T10:38:53;7.00;99.90
14122;DHT22;7139;48.114;11.442;2023-04-20T10:41:20;7.00;99.90
14122;DHT22;7139;48.114;11.442;2023-04-20T10:43:49;7.00;99.90
14122;DHT22;7139;48.114;11.442;2023-04-20T10:46:16;6.90;99.90
14122;DHT22;7139;48.114;11.442;2023-04-20T10:48:55;6.90;99.90
14122;DHT22;7139;48.114;11.442;2023-04-20T10:51:22;6.90;99.90
14122;DHT22;7139;48.114;11.442;2023-04-20T10:54:02;6.90;99.90
14122;DHT22;7139;48.114;11.442;2023-04-20T10:56:40;7.00;99.90
14122;DHT22;7139;48.114;11.442;2023-04-20T10:59:10;7.00;99.90
14122;DHT22;7139;48.114;11.442;2023-04-20T11:01:37;7.00;99.90
14122;DHT22;7139;48.114;11.442;2023-04-20T11:04:04;6.90;99.90
14122;DHT22;7139;48.114;11.442;2023-04-20T11:06:31;7.00;99.90
14122;DHT22;7139;48.114;11.442;2023-04-20T11:08:58;7.10;99.90
14122;DHT22;7139;48.114;11.442;2023-04-20T11:11:26;7.20;99.90
14122;DHT22;7139;48.114;11.442;2023-04-20T11:14:04;7.20;99.90
14122;DHT22;7139;48.114;11.442;2023-04-20T11:16:33;7.20;99.90
14122;DHT22;7139;48.114;11.442;2023-04-20T11:19:01;7.20;99.90
14122;DHT22;7139;48.114;11.442;2023-04-20T11:21:35;7.30;99.90
14122;DHT22;7139;48.114;11.442;2023-04-20T11:24:03;7.30;99.90
14122;DHT22;7139;48.114;11.442;2023-04-20T11:26:35;7.30;99.90
14122;DHT22;7139;48.114;11.442;2023-04-20T11:29:02;7.30;99.90
14122;DHT22;7139;48.114;11.442;2023-04-20T11:31:29;7.30;99.90
14122;DHT22;7139;48.114;11.442;2023-04-20T11:33:57;7.40;99.90
14122;DHT22;7139;48.114;11.442;2023-04-20T11:36:25;7.40;99.90
14122;DHT22;7139;48.114;11.442;2023-04-20T11:38:53;7.40;99.90
14122;DHT22;7139;48.114;11.442;2023-04-20T11:41:20;7.50;99.90
14122;DHT22;7139;48.114;11.442;2023-04-20T11:43:47;7.40;99.90
14122;DHT22;7139;48.114;11.442;2023-04-20T11:46:15;7.40;99.90
14122;DHT22;7139;48.114;11.442;2023-04-20T11:48:43;7.40;99.90
14122;DHT22;7139;48.114;11.442;2023-04-20T11:51:12;7.40;99.90
14122;DHT22;7139;48.114;11.442;2023-04-20T11:53:39;7.30;99.90
14122;DHT22;7139;48.114;11.442;2023-04-20T11:56:06;7.30;99.90
14122;DHT22;7139;48.114;11.442;2023-04-20T11:58:33;7.40;99.90
14122;DHT22;7139;48.114;11.442;2023-04-20T12:01:00;7.40;99.90
14122;DHT22;7139;48.114;11.442;2023-04-20T12:03:27;7.40;99.90
14122;DHT22;7139;48.114;11.442;2023-04-20T12:05:54;7.50;99.90
14122;DHT22;7139;48.114;11.442;2023-04-20T12:08:22;7.60;99.90
14122;DHT22;7139;48.114;11.442;2023-04-20T12:10:49;7.60;99.90
14122;DHT22;7139;48.114;11.442;2023-04-20T12:13:16;7.70;99.90
14122;DHT22;7139;48.114;11.442;2023-04-20T12:15:42;7.70;99.90
14122;DHT22;7139;48.114;11.442;2023-04-20T12:18:09;7.70;99.90
14122;DHT22;7139;48.114;11.442;2023-04-20T12:20:36;7.70;99.90
14122;DHT22;7139;48.114;11.442;2023-04-20T12:23:03;7.70;99.90
14122;DHT22;7139;48.114;11.442;2023-04-20T12:25:31;7.80;99.90
14122;DHT22;7139;48.114;11.442;2023-04-20T12:27:58;7.80;99.90
14122;DHT22;7139;48.114;11.442;2023-04-20T12:30:25;7.70;99.90
14122;DHT22;7139;48.114;11.442;2023-04-20T12:32:52;7.70;99.90
14122;DHT22;7139;48.114;11.442;2023-04-20T12:35:19;7.70;99.90
14122;DHT22;7139;48.114;11.442;2023-04-20T12:37:46;7.70;99.90
14122;DHT22;7139;48.114;11.442;2023-04-20T12:40:13;7.70;99.90
14122;DHT22;7139;48.114;11.442;2023-04-20T12:42:41;7.80;99.90
14122;DHT22;7139;48.114;11.442;2023-04-20T12:45:08;7.80;99.90
14122;DHT22;7139;48.114;11.442;2023-04-20T12:47:35;7.90;99.90
14122;DHT22;7139;48.114;11.442;2023-04-20T12:50:02;7.90;99.90
14122;DHT22;7139;48.114;11.442;2023-04-20T12:52:29;7.80;99.90
14122;DHT22;7139;48.114;11.442;2023-04-20T12:54:56;7.90;99.90
14122;DHT22;7139;48.114;11.442;2023-04-20T12:57:22;7.80;99.90
14122;DHT22;7139;48.114;11.442;2023-04-20T12:59:51;7.80;99.90
14122;DHT22;7139;48.114;11.442;2023-04-20T13:02:18;7.80;99.90
14122;DHT22;7139;48.114;11.442;2023-04-20T13:04:44;7.90;99.90
14122;DHT22;7139;48.114;11.442;2023-04-20T13:07:11;7.90;99.90
14122;DHT22;7139;48.114;11.442;2023-04-20T13:09:38;8.00;99.90
14122;DHT22;7139;48.114;11.442;2023-04-20T13:12:05;8.10;99.90
14122;DHT22;7139;48.114;11.442;2023-04-20T13:14:32;8.20;99.90
14122;DHT22;7139;48.114;11.442;2023-04-20T13:17:00;8.20;99.90
14122;DHT22;7139;48.114;11.442;2023-04-20T13:19:27;8.20;99.90
14122;DHT22;7139;48.114;11.442;2023-04-20T13:21:54;8.20;99.90
14122;DHT22;7139;48.114;11.442;2023-04-20T13:24:21;8.20;99.90
14122;DHT22;7139;48.114;11.442;2023-04-20T13:26:49;8.20;99.90
14122;DHT22;7139;48.114;11.442;2023-04-20T13:29:16;8.20;99.90
14122;DHT22;7139;48.114;11.442;2023-04-20T13:31:42;8.20;99.90
14122;DHT22;7139;48.114;11.442;2023-04-20T13:34:13;8.30;99.90
14122;DHT22;7139;48.114;11.442;2023-04-20T13:36:40;8.30;99.90
14122;DHT22;7139;48.114;11.442;2023-04-20T13:39:07;8.40;99.90
14122;DHT22;7139;48.114;11.442;2023-04-20T13:41:35;8.40;99.90
14122;DHT22;7139;48.114;11.442;2023-04-20T13:44:02;8.50;99.90
14122;DHT22;7139;48.114;11.442;2023-04-20T13:46:29;8.50;99.90
14122;DHT22;7139;48.114;11.442;2023-04-20T13:48:56;8.50;99.90
14122;DHT22;7139;48.114;11.442;2023-04-20T13:51:24;8.50;99.90
14122;DHT22;7139;48.114;11.442;2023-04-20T13:53:51;8.50;99.90
14122;DHT22;7139;48.114;11.442;2023-04-20T13:56:18;8.50;99.90
14122;DHT22;7139;48.114;11.442;2023-04-20T13:58:45;8.60;99.90
14122;DHT22;7139;48.114;11.442;2023-04-20T14:01:13;8.50;99.90
14122;DHT22;7139;48.114;11.442;2023-04-20T14:03:41;8.50;99.90
14122;DHT22;7139;48.114;11.442;2023-04-20T14:06:07;8.50;99.90
14122;DHT22;7139;48.114;11.442;2023-04-20T14:08:36;8.50;99.90
14122;DHT22;7139;48.114;11.442;2023-04-20T14:11:02;8.50;99.90
14122;DHT22;7139;48.114;11.442;2023-04-20T14:13:29;8.60;99.90
14122;DHT22;7139;48.114;11.442;2023-04-20T14:15:56;8.60;99.90
14122;DHT22;7139;48.114;11.442;2023-04-20T14:18:23;8.60;99.90
14122;DHT22;7139;48.114;11.442;2023-04-20T14:20:49;8.60;99.90
14122;DHT22;7139;48.114;11.442;2023-04-20T14:23:16;8.60;99.90
14122;DHT22;7139;48.114;11.442;2023-04-20T14:25:45;8.60;99.90
14122;DHT22;7139;48.114;11.442;2023-04-20T14:28:13;8.60;99.90
14122;DHT22;7139;48.114;11.442;2023-04-20T14:30:42;8.50;99.90
14122;DHT22;7139;48.114;11.442;2023-04-20T14:33:09;8.50;99.90
14122;DHT22;7139;48.114;11.442;2023-04-20T14:35:36;8.50;99.90
14122;DHT22;7139;48.114;11.442;2023-04-20T14:38:03;8.50;99.90
14122;DHT22;7139;48.114;11.442;2023-04-20T14:40:30;8.50;99.90
14122;DHT22;7139;48.114;11.442;2023-04-20T14:42:58;8.50;99.90
14122;DHT22;7139;48.114;11.442;2023-04-20T14:45:25;8.50;99.90
14122;DHT22;7139;48.114;11.442;2023-04-20T14:47:52;8.50;99.90
14122;DHT22;7139;48.114;11.442;2023-04-20T14:50:19;8.50;99.90
14122;DHT22;7139;48.114;11.442;2023-04-20T14:52:47;8.40;99.90
14122;DHT22;7139;48.114;11.442;2023-04-20T14:55:13;8.40;99.90
14122;DHT22;7139;48.114;11.442;2023-04-20T14:57:40;8.50;99.90
14122;DHT22;7139;48.114;11.442;2023-04-20T15:00:09;8.50;99.90
14122;DHT22;7139;48.114;11.442;2023-04-20T15:02:37;8.40;99.90
14122;DHT22;7139;48.114;11.442;2023-04-20T15:05:04;8.40;99.90
14122;DHT22;7139;48.114;11.442;2023-04-20T15:07:31;8.40;99.90
14122;DHT22;7139;48.114;11.442;2023-04-20T15:09:57;8.50;99.90
14122;DHT22;7139;48.114;11.442;2023-04-20T15:12:24;8.50;99.90
14122;DHT22;7139;48.114;11.442;2023-04-20T15:14:51;8.50;99.90
14122;DHT22;7139;48.114;11.442;2023-04-20T15:17:19;8.50;99.90
14122;DHT22;7139;48.114;11.442;2023-04-20T15:19:46;8.60;99.90
14122;DHT22;7139;48.114;11.442;2023-04-20T15:22:12;8.70;99.90
14122;DHT22;7139;48.114;11.442;2023-04-20T15:24:39;8.60;99.90
14122;DHT22;7139;48.114;11.442;2023-04-20T15:27:06;8.70;99.90
14122;DHT22;7139;48.114;11.442;2023-04-20T15:29:33;8.70;99.90
14122;DHT22;7139;48.114;11.442;2023-04-20T15:32:00;8.70;99.90
14122;DHT22;7139;48.114;11.442;2023-04-20T15:34:28;8.70;99.90
14122;DHT22;7139;48.114;11.442;2023-04-20T15:36:55;8.70;99.90
14122;DHT22;7139;48.114;11.442;2023-04-20T15:39:21;8.70;99.90
14122;DHT22;7139;48.114;11.442;2023-04-20T15:41:48;8.70;99.90
14122;DHT22;7139;48.114;11.442;2023-04-20T15:44:15;8.80;99.90
14122;DHT22;7139;48.114;11.442;2023-04-20T15:46:41;8.70;99.90